createdAt,value
2017-05-23T00:00:01.233Z,11.9
2017-05-23T00:05:01.496Z,11.9
2017-05-23T00:10:01.349Z,11.8
2017-05-23T00:15:02.196Z,11.8
2017-05-23T00:20:01.254Z,11.8
2017-05-23T00:25:02.079Z,11.8
2017-05-23T00:30:01.920Z,11.8
2017-05-23T00:35:01.520Z,11.8
2017-05-23T00:40:01.338Z,11.8
2017-05-23T00:45:01.254Z,11.8
2017-05-23T00:50:01.403Z,11.8
2017-05-23T00:55:02.176Z,11.8
2017-05-23T01:00:01.948Z,11.8
2017-05-23T01:05:01.404Z,11.8
2017-05-23T01:10:01.234Z,11.8
2017-05-23T01:15:01.288Z,11.8
2017-05-23T01:20:01.510Z,11.8
2017-05-23T01:25:01.413Z,11.8
2017-05-23T01:30:02.144Z,11.8
2017-05-23T01:35:01.335Z,11.8
2017-05-23T01:40:02.026Z,11.8
2017-05-23T01:45:01.805Z,11.8
2017-05-23T01:50:02.075Z,11.8
2017-05-23T01:55:01.760Z,11.8
2017-05-23T02:00:02.086Z,11.7
2017-05-23T02:05:01.326Z,11.7
2017-05-23T02:10:01.306Z,11.7
2017-05-23T02:15:01.565Z,11.7
2017-05-23T02:20:01.722Z,11.6
2017-05-23T02:25:01.796Z,11.6
2017-05-23T02:30:01.663Z,11.6
2017-05-23T02:35:01.554Z,11.6
2017-05-23T02:40:01.229Z,11.6
2017-05-23T02:45:01.431Z,11.6
2017-05-23T02:50:01.679Z,11.5
2017-05-23T02:55:01.456Z,11.5
2017-05-23T03:00:01.472Z,11.5
2017-05-23T03:05:01.918Z,11.5
2017-05-23T03:10:01.586Z,11.5
2017-05-23T03:15:01.872Z,11.4
2017-05-23T03:20:01.263Z,11.4
2017-05-23T03:25:02.164Z,11.4
2017-05-23T03:30:02.066Z,11.4
2017-05-23T03:35:01.552Z,11.3
2017-05-23T03:40:01.689Z,11.3
2017-05-23T03:45:02.308Z,11.3
2017-05-23T03:50:01.253Z,11.3
2017-05-23T03:55:01.544Z,11.3
2017-05-23T04:00:01.557Z,11.3
2017-05-23T04:05:01.784Z,11.2
2017-05-23T04:10:01.712Z,11.2
2017-05-23T04:15:01.570Z,11.2
2017-05-23T04:20:01.630Z,11.2
2017-05-23T04:25:02.128Z,11.2
2017-05-23T04:30:01.824Z,11.4
2017-05-23T04:35:02.150Z,11.4
2017-05-23T04:40:01.372Z,11.6
2017-05-23T04:45:01.804Z,11.6
2017-05-23T04:50:01.425Z,11.6
2017-05-23T04:55:01.949Z,11.6
2017-05-23T05:00:01.225Z,11.6
2017-05-23T05:05:02.137Z,12.1
2017-05-23T05:10:02.149Z,12.2
2017-05-23T05:15:01.360Z,12.5
2017-05-23T05:20:01.639Z,12.7
2017-05-23T05:25:01.923Z,12.7
2017-05-23T05:30:02.077Z,13.2
2017-05-23T05:35:01.339Z,13.3
2017-05-23T05:40:02.128Z,13.3
2017-05-23T05:45:02.053Z,13.3
2017-05-23T05:50:01.920Z,13.8
2017-05-23T05:55:01.800Z,14
2017-05-23T06:00:02.255Z,14
2017-05-23T06:05:01.676Z,14
2017-05-23T06:10:01.529Z,14.3
2017-05-23T06:15:01.825Z,14.4
2017-05-23T06:20:01.725Z,14.4
2017-05-23T06:25:02.077Z,14.4
2017-05-23T06:30:01.417Z,15
2017-05-23T06:35:01.770Z,15
2017-05-23T06:40:01.795Z,15
2017-05-23T06:45:01.749Z,15
2017-05-23T06:50:01.576Z,15.4
2017-05-23T06:55:01.302Z,15.6
2017-05-23T07:00:01.936Z,15.9
2017-05-23T07:05:01.828Z,15.9
2017-05-23T07:10:01.738Z,15.9
2017-05-23T07:15:01.902Z,16.6
2017-05-23T07:20:02.133Z,16.6
2017-05-23T07:25:01.390Z,16.9
2017-05-23T07:30:01.771Z,17.2
2017-05-23T07:35:01.424Z,17.3
2017-05-23T07:40:02.183Z,17.8
2017-05-23T07:45:01.526Z,17.8
2017-05-23T07:50:01.326Z,17.8
2017-05-23T07:55:01.924Z,18.5
2017-05-23T08:00:01.327Z,18.7
2017-05-23T08:05:01.937Z,18.7
2017-05-23T08:10:01.747Z,19.2
2017-05-23T08:15:01.239Z,19.2
2017-05-23T08:20:01.581Z,19.7
2017-05-23T08:25:01.759Z,19.7
2017-05-23T08:30:01.597Z,19.7
2017-05-23T08:35:01.333Z,20.3
2017-05-23T08:40:02.097Z,20.5
2017-05-23T08:45:01.784Z,20.8
2017-05-23T08:50:01.382Z,20.8
2017-05-23T08:55:01.894Z,21.2
2017-05-23T09:00:01.223Z,21.2
2017-05-23T09:05:01.960Z,21.2
2017-05-23T09:10:01.773Z,21.8
2017-05-23T09:15:01.430Z,21.8
2017-05-23T09:20:01.299Z,21.8
2017-05-23T09:25:01.377Z,21.8
2017-05-23T09:30:01.797Z,21.8
2017-05-23T09:35:01.415Z,21.8
2017-05-23T09:40:01.318Z,22.6
2017-05-23T09:45:01.370Z,22.8
2017-05-23T09:50:02.073Z,22.9
2017-05-23T09:55:01.659Z,22.9
2017-05-23T10:00:02.081Z,22.9
2017-05-23T10:05:01.281Z,22.9
2017-05-23T10:10:01.375Z,22.9
2017-05-23T10:15:01.980Z,22.9
2017-05-23T10:20:01.296Z,22.9
2017-05-23T10:25:01.471Z,23.7
2017-05-23T10:30:02.054Z,23.7
2017-05-23T10:35:01.328Z,23.8
2017-05-23T10:40:02.042Z,23.8
2017-05-23T10:45:01.994Z,23.9
2017-05-23T10:50:01.911Z,24
2017-05-23T10:55:01.803Z,24
2017-05-23T11:00:02.129Z,24
2017-05-23T11:05:01.365Z,24
2017-05-23T11:10:01.314Z,24
2017-05-23T11:15:02.071Z,23.9
2017-05-23T11:20:01.615Z,23.9
2017-05-23T11:25:01.679Z,23.8
2017-05-23T11:30:02.179Z,23.8
2017-05-23T11:35:01.744Z,23.8
2017-05-23T11:40:01.606Z,23.8
2017-05-23T11:45:01.526Z,23.8
2017-05-23T11:50:01.282Z,23.6
2017-05-23T11:55:01.915Z,23.6
2017-05-23T12:00:01.485Z,23.6
2017-05-23T12:05:01.782Z,23.6
2017-05-23T12:10:02.037Z,23.4
2017-05-23T12:15:01.822Z,23.4
2017-05-23T12:20:01.503Z,23.4
2017-05-23T12:25:01.693Z,23.4
2017-05-23T12:30:02.007Z,23.4
2017-05-23T12:35:01.780Z,23.4
2017-05-23T12:40:01.513Z,23.4
2017-05-23T12:45:01.361Z,23.4
2017-05-23T12:50:01.206Z,23.4
2017-05-23T12:55:02.000Z,23.4
2017-05-23T13:00:01.278Z,23.4
2017-05-23T13:05:01.706Z,23.4
2017-05-23T13:10:02.100Z,23.4
2017-05-23T13:15:01.353Z,23.5
2017-05-23T13:20:01.901Z,23.5
2017-05-23T13:25:02.145Z,23.5
2017-05-23T13:30:01.588Z,23.5
2017-05-23T13:35:01.467Z,23.4
2017-05-23T13:40:01.991Z,23.5
2017-05-23T13:45:01.946Z,23.5
2017-05-23T13:50:01.470Z,23.5
2017-05-23T13:55:01.865Z,23.4
2017-05-23T14:00:01.793Z,23.4
2017-05-23T14:05:01.578Z,23.2
2017-05-23T14:10:01.515Z,23.2
2017-05-23T14:15:01.803Z,22.6
2017-05-23T14:20:02.172Z,22.6
2017-05-23T14:25:01.276Z,21.9
2017-05-23T14:30:01.936Z,21.9
2017-05-23T14:35:01.474Z,21.9
2017-05-23T14:40:01.386Z,19.9
2017-05-23T14:45:01.293Z,19.6
2017-05-23T14:50:01.744Z,19.2
2017-05-23T14:55:01.479Z,19
2017-05-23T15:00:02.006Z,18.8
2017-05-23T15:05:01.968Z,18.8
2017-05-23T15:10:01.809Z,18.8
2017-05-23T15:15:01.376Z,18.5
2017-05-23T15:20:01.534Z,18.5
2017-05-23T15:25:01.675Z,18.4
2017-05-23T15:30:02.009Z,18.4
2017-05-23T15:35:01.765Z,18.3
2017-05-23T15:40:01.308Z,18.3
2017-05-23T15:45:01.233Z,18.3
2017-05-23T15:50:01.359Z,18.6
2017-05-23T15:55:01.433Z,18.6
2017-05-23T16:00:01.777Z,18.8
2017-05-23T16:05:01.899Z,18.9
2017-05-23T16:10:01.741Z,18.9
2017-05-23T16:15:01.552Z,18.9
2017-05-23T16:20:01.572Z,18.9
2017-05-23T16:25:01.749Z,18.8
2017-05-23T16:30:02.098Z,18.8
2017-05-23T16:35:01.556Z,18.8
2017-05-23T16:40:01.351Z,18.8
2017-05-23T16:45:01.216Z,18.8
2017-05-23T16:50:02.086Z,19
2017-05-23T16:55:01.925Z,19
2017-05-23T17:00:01.559Z,19
2017-05-23T17:05:02.102Z,19.1
2017-05-23T17:10:01.748Z,19.2
2017-05-23T17:15:01.444Z,19.1
2017-05-23T17:20:01.872Z,19.1
2017-05-23T17:25:01.561Z,19.1
2017-05-23T17:30:01.217Z,19.1
2017-05-23T17:35:02.265Z,18.9
2017-05-23T17:40:01.726Z,18.9
2017-05-23T17:45:02.132Z,18.9
2017-05-23T17:50:01.374Z,18.7
2017-05-23T17:55:01.614Z,18.5
2017-05-23T18:00:01.640Z,18.4
2017-05-23T18:05:01.875Z,18.3
2017-05-23T18:10:01.837Z,18.1
2017-05-23T18:15:01.563Z,17.9
2017-05-23T18:20:01.690Z,17.9
2017-05-23T18:25:02.231Z,17.6
2017-05-23T18:30:01.899Z,17.3
2017-05-23T18:35:01.496Z,17.2
2017-05-23T18:40:01.750Z,17.2
2017-05-23T18:45:01.854Z,16.8
2017-05-23T18:50:01.480Z,16.8
2017-05-23T18:55:02.316Z,16.4
2017-05-23T19:00:01.762Z,16.1
2017-05-23T19:05:01.419Z,16.1
2017-05-23T19:10:01.321Z,15.7
2017-05-23T19:15:01.468Z,15.4
2017-05-23T19:20:01.323Z,15.4
2017-05-23T19:25:01.775Z,15
2017-05-23T19:30:02.073Z,15
2017-05-23T19:35:01.313Z,15
2017-05-23T19:40:01.948Z,15
2017-05-23T19:45:01.690Z,14.6
2017-05-23T19:50:02.035Z,14.5
2017-05-23T19:55:01.264Z,14.4
2017-05-23T20:00:01.711Z,14.2
2017-05-23T20:05:01.483Z,14.1
2017-05-23T20:10:01.287Z,14.1
2017-05-23T20:15:02.023Z,14
2017-05-23T20:20:01.329Z,14
2017-05-23T20:25:01.806Z,13.8
2017-05-23T20:30:01.333Z,13.8
2017-05-23T20:35:01.814Z,13.8
2017-05-23T20:40:01.721Z,13.8
2017-05-23T20:45:02.071Z,13.8
2017-05-23T20:50:01.271Z,13.8
2017-05-23T20:55:01.684Z,13.8
2017-05-23T21:00:01.503Z,13.7
2017-05-23T21:05:01.646Z,13.7
2017-05-23T21:10:01.592Z,13.7
2017-05-23T21:15:01.652Z,13.5
2017-05-23T21:20:01.435Z,13.5
2017-05-23T21:25:01.516Z,13.5
2017-05-23T21:30:01.266Z,13.4
2017-05-23T21:35:01.250Z,13.4
2017-05-23T21:40:01.319Z,13.4
2017-05-23T21:45:01.692Z,13.4
2017-05-23T21:50:01.862Z,13.3
2017-05-23T21:55:01.875Z,13.3
2017-05-23T22:00:01.607Z,13.3
2017-05-23T22:05:01.635Z,13.3
2017-05-23T22:10:01.721Z,13.3
2017-05-23T22:15:01.936Z,13.3
2017-05-23T22:20:01.842Z,13.3
2017-05-23T22:25:01.958Z,13.2
2017-05-23T22:30:02.032Z,13.2
2017-05-23T22:35:01.840Z,13.2
2017-05-23T22:40:01.889Z,13.2
2017-05-23T22:45:02.619Z,13.2
2017-05-23T22:50:02.043Z,13.2
2017-05-23T22:55:02.167Z,13.2
2017-05-23T23:00:01.985Z,13.2
2017-05-23T23:05:01.537Z,13.1
2017-05-23T23:10:01.621Z,13.1
2017-05-23T23:15:01.492Z,13.1
2017-05-23T23:20:01.479Z,13.1
2017-05-23T23:25:01.227Z,13.1
2017-05-23T23:30:02.102Z,13.1
2017-05-23T23:35:01.205Z,13.1
2017-05-23T23:40:01.945Z,13.1
2017-05-23T23:45:01.869Z,13
2017-05-23T23:50:01.446Z,13
2017-05-23T23:55:01.171Z,13
